Aérodrome de Toulouse Bourg-Saint-Bernard

METAR LFBO TAF LFBO
8 °C
°C
-
°C
7m
Alter
15:36:41
LT
14:36
UTC
0 ft

1.000

2.000

3.000

4.000

5.000

OVC 2.900
MVFR
<?= Yii::t('app', 'Wind direction') ?> <?= Yii::t('app', 'of'); ?>
120°
18:13
Sonne unter
71%
Luftfeuchtigkeit
Windscherung
Geschlossen/Schnee
RWY-Sichtweite
RWY Zustand
Vert. Sichtweite
Min. Sichtbarkeit
CAVOK
Trend
Korrektur
Besonderer Bericht
1027 hPa
QNH
METAR LFBO 071430Z AUTO 12017G28KT 9999 OVC029 08/03 Q1027 NOSIG
Himmel bedeckt
0 kt
0 kt
15:00
MVFR
20 kt
16:00
VFR
20 kt
17:00
VFR
20 kt
18:00
VFR
20 kt
19:00
VFR
20 kt
20:00
VFR
12 kt
21:00
VFR
12 kt
10 km+
Sichtweite
2.900 ft
Wolkendecke
17-28 kt
Wind
metar-taf.com/LFIT

Metar-Taf.com

Visueller Decoder

Wir und Dritte verfolgen dein Internetverhalten auf unserer Website mit Cookies. Wenn du fortfährst, gehen wir davon aus, dass du mit unserer Cookie-Richtlinie einverstanden bist.